Bg Felixstowe — V2BR7 — position and weather

sailwx.info

Track history (hours):
 
Tides and Currents Weather Stations Pressure Air Temp Water Temp Dewpoint Dewpoint Depression Visibility Wind Speed Wind Dir Waves Ship Positions

Bg Felixstowe

Last reported at 2015-Jan-20 06:13 UTC. Time now 2015-Jan-30 10:58 UTC.
Position N 27°13' W 079°49'.
Warning: this ship's position is 10 days out of date.

Length 139 m; draft 7.6 m.

Type: Ship. MMSI: 304906000.

Date/timePositionNaut miles runAvg speedWind from/ knotsBaromVisibWave heightAir tempDewpointWater temp
2015-Jan-20 06:13N 27°13' W 079°49'1515.4
2015-Jan-20 05:14N 26°58' W 079°49'1015.3
2015-Jan-20 04:33N 26°48' W 079°50'1515.3
2015-Jan-20 03:33N 26°33' W 079°53'1514.7
2015-Jan-20 02:33N 26°18' W 079°56'1414.0
2015-Jan-20 01:33N 26°05' W 080°00'1313.3
2015-Jan-20 00:33N 25°52' W 080°03'8 8.0
2015-Jan-19 23:33N 25°46' W 080°09'1 0.3
2015-Jan-19 21:24N 25°46' W 080°10'0 0.0
2015-Jan-19 20:12N 25°46' W 080°10'0 0.0
2015-Jan-19 19:05N 25°46' W 080°10'0 0.0
2015-Jan-19 18:32N 25°46' W 080°10'0 0.0
2015-Jan-19 15:12N 25°46' W 080°10'0 0.0
2015-Jan-19 14:33N 25°46' W 080°10'0 0.0
2015-Jan-19 13:33N 25°46' W 080°10'0 0.0
2015-Jan-19 12:29N 25°46' W 080°10'0 0.0
2015-Jan-19 11:23N 25°46' W 080°10'3 3.5
2015-Jan-19 10:33N 25°45' W 080°07'7 7.5
2015-Jan-19 09:34N 25°40' W 080°02'2512.2
2015-Jan-19 07:33N 25°15' W 080°02'  
2015-Jan-12 17:14N 25°30' W 080°00'811.8
2015-Jan-12 16:33N 25°38' W 080°01'1010.5
2015-Jan-12 15:34N 25°46' W 080°08'1 1.0
2015-Jan-12 14:05N 25°46' W 080°10'0 0.0
2015-Jan-12 13:17N 25°46' W 080°10'0 0.0
2015-Jan-12 10:12N 25°46' W 080°10'0 0.0
2015-Jan-12 08:15N 25°46' W 080°10'0 0.0
2015-Jan-12 06:05N 25°46' W 080°10'0 0.0
2015-Jan-12 05:25N 25°46' W 080°10'0 0.0
2015-Jan-12 04:31N 25°46' W 080°10'0 0.0
2015-Jan-12 03:09N 25°46' W 080°10'0 0.0
2015-Jan-12 02:21N 25°46' W 080°10'1 0.4
2015-Jan-12 00:33N 25°46' W 080°09'8 8.2
2015-Jan-11 23:33N 25°41' W 080°02'  
Track history (hours):
 
Tides and Currents Weather Stations Pressure Air Temp Water Temp Dewpoint Dewpoint Depression Visibility Wind Speed Wind Dir Waves Ship Positions

Bg Felixstowe

Last reported at 2015-Jan-20 06:13 UTC. Time now 2015-Jan-30 10:58 UTC.
Position N 27°13' W 079°49'.
Warning: this ship's position is 10 days out of date.

Length 139 m; draft 7.6 m.

Type: Ship. MMSI: 304906000.

Date/timePositionNaut miles runAvg speedWind from/ knotsBaromVisibWave heightAir tempDewpointWater temp
2015-Jan-20 06:13N 27°13' W 079°49'1515.4
2015-Jan-20 05:14N 26°58' W 079°49'1015.3
2015-Jan-20 04:33N 26°48' W 079°50'1515.3
2015-Jan-20 03:33N 26°33' W 079°53'1514.7
2015-Jan-20 02:33N 26°18' W 079°56'1414.0
2015-Jan-20 01:33N 26°05' W 080°00'1313.3
2015-Jan-20 00:33N 25°52' W 080°03'8 8.0
2015-Jan-19 23:33N 25°46' W 080°09'1 0.3
2015-Jan-19 21:24N 25°46' W 080°10'0 0.0
2015-Jan-19 20:12N 25°46' W 080°10'0 0.0
2015-Jan-19 19:05N 25°46' W 080°10'0 0.0
2015-Jan-19 18:32N 25°46' W 080°10'0 0.0
2015-Jan-19 15:12N 25°46' W 080°10'0 0.0
2015-Jan-19 14:33N 25°46' W 080°10'0 0.0
2015-Jan-19 13:33N 25°46' W 080°10'0 0.0
2015-Jan-19 12:29N 25°46' W 080°10'0 0.0
2015-Jan-19 11:23N 25°46' W 080°10'3 3.5
2015-Jan-19 10:33N 25°45' W 080°07'7 7.5
2015-Jan-19 09:34N 25°40' W 080°02'2512.2
2015-Jan-19 07:33N 25°15' W 080°02'  
2015-Jan-12 17:14N 25°30' W 080°00'811.8
2015-Jan-12 16:33N 25°38' W 080°01'1010.5
2015-Jan-12 15:34N 25°46' W 080°08'1 1.0
2015-Jan-12 14:05N 25°46' W 080°10'0 0.0
2015-Jan-12 13:17N 25°46' W 080°10'0 0.0
2015-Jan-12 10:12N 25°46' W 080°10'0 0.0
2015-Jan-12 08:15N 25°46' W 080°10'0 0.0
2015-Jan-12 06:05N 25°46' W 080°10'0 0.0
2015-Jan-12 05:25N 25°46' W 080°10'0 0.0
2015-Jan-12 04:31N 25°46' W 080°10'0 0.0
2015-Jan-12 03:09N 25°46' W 080°10'0 0.0
2015-Jan-12 02:21N 25°46' W 080°10'1 0.4
2015-Jan-12 00:33N 25°46' W 080°09'8 8.2
2015-Jan-11 23:33N 25°41' W 080°02'  

Dump ship's entire track history